aviador You're here:

YPKG Decoded Metar

KALGOORLIE in AUSTRALIA
Report Time2017-12-16 03:31:00
UTC Time2017-12-16 03:40:55
Flight Rules vfr VFR
Wind340° at 15 Gusting to 28 kt
W.Decomp.*RWY 36: 14.0 kt HW 5.4 kt LCW
RWY 29: 9.8 kt HW 11.3 kt RCW
W.Rank340° ranks 33
Current wind is above 340° avg. (7.6)
Visibility9999 m
Phenomena:N/A
Clouds:N/A
Expected CloudBase > 13,200 ft AGL from Temp-Dew spread
CeilingNone
Temp39°C (ISA +26)
Dew Point06°C (13% RH)
Heat Index36.5°C
AAT32.6°C
QNH1002 hPa
Density Alt4,636 ft
Elevation1,181 ft
Report Wrong Elevation
Raw Report
SPECI YPKG 160331Z AUTO 34015G28KT 9999 // NCD 39/06 Q1002=

Extra information for YPKG:More info

Metar Taf Metar & Taf Last 4 Metars F.Rules Stats Wind Profile Meteogram Temp Stats Airport Information Weather charts Add Link Nearby VenuesMetar ALERT Operation Metar Decoded Social comments